Smicksburg, Pennsylvania
Current Conditions -  °F | °C
As of 1:35 PM on Tuesday 27 Jan 2015 (Local Time) from KIDI Reporting Station
Overcast Overcast  
Wind Chill: 11°   Ceiling: 1700
Heat Index: 21°   Visibility: 7mi
Dew Point: 16°   Wind: 9mph
Humidity: 80%   Direction: 320°NW
Pressure: 29.91"   Gusts: NA
Location:  40.87°N, 79.17°W
Report Text: KIDI 271835Z AUTO 32008KT 7SM BKN017 OVC023 M06/M09 A2991 RMK A01
Loading
Personal Weather Stations






























Interactive Weather Map New forecast layout! Learn more

10-Day Weather Forecast

Advertisements
Track Severe Weather on mobile